createdAt,value
2019-04-28T00:02:07.189Z,66.46
2019-04-28T00:04:41.533Z,66.55
2019-04-28T00:07:14.896Z,66.46
2019-04-28T00:09:48.091Z,66.45
2019-04-28T00:12:22.924Z,66.44
2019-04-28T00:14:56.111Z,66.48
2019-04-28T00:17:30.924Z,66.79
2019-04-28T00:20:06.051Z,66.57
2019-04-28T00:22:51.506Z,66.63
2019-04-28T00:25:31.212Z,66.82
2019-04-28T00:28:04.623Z,67.09
2019-04-28T00:30:38.005Z,66.92
2019-04-28T00:33:11.697Z,66.89
2019-04-28T00:35:45.110Z,66.65
2019-04-28T00:38:18.280Z,67.17
2019-04-28T00:40:52.817Z,67.36
2019-04-28T00:43:26.180Z,67.29
2019-04-28T00:46:00.961Z,67.18
2019-04-28T00:48:35.783Z,67.19
2019-04-28T00:51:08.955Z,67.01
2019-04-28T00:53:42.286Z,67.04
2019-04-28T00:56:15.589Z,66.92
2019-04-28T00:58:48.889Z,67.18
2019-04-28T01:01:30.940Z,67.01
2019-04-28T01:04:04.335Z,67.19
2019-04-28T01:06:37.508Z,67.40
2019-04-28T01:09:11.860Z,67.70
2019-04-28T01:11:45.180Z,67.69
2019-04-28T01:14:18.521Z,68.11
2019-04-28T01:16:59.854Z,68.30
2019-04-28T01:19:35.701Z,68.36
2019-04-28T01:22:13.217Z,68.25
2019-04-28T01:24:47.387Z,68.43
2019-04-28T01:27:50.486Z,68.48
2019-04-28T01:30:44.994Z,68.66
2019-04-28T01:33:34.116Z,68.64
2019-04-28T01:36:07.877Z,68.58
2019-04-28T01:38:42.542Z,68.57
2019-04-28T01:41:15.804Z,68.75
2019-04-28T01:43:49.099Z,68.81
2019-04-28T01:46:22.280Z,68.85
2019-04-28T01:48:56.977Z,68.74
2019-04-28T01:51:31.224Z,68.84
2019-04-28T01:54:04.457Z,68.76
2019-04-28T01:56:37.702Z,69.09
2019-04-28T01:59:10.895Z,69.15
2019-04-28T02:01:44.127Z,69.00
2019-04-28T02:04:17.378Z,69.20
2019-04-28T02:06:50.714Z,69.31
2019-04-28T02:09:23.970Z,69.32
2019-04-28T02:11:57.230Z,69.17
2019-04-28T02:14:30.921Z,69.14
2019-04-28T02:17:04.308Z,69.03
2019-04-28T02:19:37.575Z,69.41
2019-04-28T02:22:31.772Z,69.46
2019-04-28T02:25:05.402Z,69.38
2019-04-28T02:27:40.077Z,69.20
2019-04-28T02:30:13.631Z,69.12
2019-04-28T02:32:46.932Z,69.41
2019-04-28T02:35:21.349Z,69.44
2019-04-28T02:37:54.761Z,69.23
2019-04-28T02:40:30.376Z,69.39
2019-04-28T02:43:02.831Z,69.49
2019-04-28T02:45:41.025Z,69.20
2019-04-28T02:48:21.138Z,69.46
2019-04-28T02:51:10.851Z,69.42
2019-04-28T02:53:47.146Z,69.73
2019-04-28T02:56:21.287Z,69.34
2019-04-28T02:58:54.587Z,69.19
2019-04-28T03:01:30.647Z,69.06
2019-04-28T03:04:02.749Z,68.87
2019-04-28T03:06:36.071Z,68.84
2019-04-28T03:09:10.606Z,68.75
2019-04-28T03:11:43.975Z,68.84
2019-04-28T03:14:17.197Z,68.51
2019-04-28T03:16:51.532Z,68.46
2019-04-28T03:19:24.866Z,68.41
2019-04-28T03:22:01.050Z,68.43
2019-04-28T03:24:33.189Z,68.34
2019-04-28T03:27:35.660Z,68.21
2019-04-28T03:30:27.839Z,68.27
2019-04-28T03:33:10.607Z,68.47
2019-04-28T03:35:36.942Z,68.40
2019-04-28T03:38:11.079Z,68.44
2019-04-28T03:40:44.441Z,68.63
2019-04-28T03:43:17.629Z,68.53
2019-04-28T03:45:55.705Z,68.51
2019-04-28T03:48:30.892Z,68.71
2019-04-28T03:51:03.893Z,68.82
2019-04-28T03:53:37.066Z,68.91
2019-04-28T03:56:11.401Z,69.02
2019-04-28T03:58:44.887Z,69.23
2019-04-28T04:01:20.469Z,69.13
2019-04-28T04:03:53.069Z,69.28
2019-04-28T04:06:26.259Z,69.10
2019-04-28T04:09:00.317Z,69.07
2019-04-28T04:11:42.828Z,69.09
2019-04-28T04:14:34.785Z,68.87
2019-04-28T04:17:26.422Z,68.91
2019-04-28T04:20:01.781Z,69.22
2019-04-28T04:22:35.442Z,69.13
2019-04-28T04:25:12.264Z,69.32
2019-04-28T04:27:43.653Z,69.55
2019-04-28T04:30:16.997Z,69.43
2019-04-28T04:32:50.696Z,69.24
2019-04-28T04:35:24.001Z,69.27
2019-04-28T04:37:57.237Z,69.39
2019-04-28T04:40:31.803Z,69.11
2019-04-28T04:43:05.233Z,69.20
2019-04-28T04:45:40.488Z,69.23
2019-04-28T04:48:13.240Z,69.05
2019-04-28T04:50:47.611Z,68.92
2019-04-28T04:53:21.804Z,69.17
2019-04-28T04:55:54.952Z,69.05
2019-04-28T04:58:30.475Z,68.96
2019-04-28T05:01:13.194Z,68.94
2019-04-28T05:03:47.229Z,68.86
2019-04-28T05:06:35.849Z,68.51
2019-04-28T05:09:12.039Z,68.63
2019-04-28T05:11:45.389Z,68.52
2019-04-28T05:14:19.927Z,69.34
2019-04-28T05:17:00.855Z,67.95
2019-04-28T05:19:29.837Z,67.86
2019-04-28T05:22:03.251Z,67.58
2019-04-28T05:24:46.221Z,67.59
2019-04-28T05:27:33.791Z,67.21
2019-04-28T05:30:08.062Z,66.65
2019-04-28T05:32:45.381Z,66.34
2019-04-28T05:35:17.637Z,65.74
2019-04-28T05:37:51.181Z,65.46
2019-04-28T05:40:26.396Z,64.81
2019-04-28T05:43:01.136Z,64.49
2019-04-28T05:45:34.667Z,64.19
2019-04-28T05:48:10.819Z,63.66
2019-04-28T05:50:49.943Z,63.39
2019-04-28T05:53:41.477Z,63.31
2019-04-28T05:56:21.980Z,63.75
2019-04-28T05:59:00.700Z,63.90
2019-04-28T06:01:52.776Z,63.71
2019-04-28T06:04:28.051Z,64.08
2019-04-28T06:07:07.739Z,64.69
2019-04-28T06:09:44.795Z,64.79
2019-04-28T06:12:20.097Z,65.22
2019-04-28T06:14:53.493Z,65.05
2019-04-28T06:17:26.777Z,65.24
2019-04-28T06:20:03.935Z,65.21
2019-04-28T06:23:01.668Z,64.49
2019-04-28T06:25:37.540Z,64.50
2019-04-28T06:28:10.676Z,64.40
2019-04-28T06:30:43.897Z,64.06
2019-04-28T06:33:17.039Z,64.62
2019-04-28T06:35:50.198Z,63.09
2019-04-28T06:38:23.429Z,63.03
2019-04-28T06:40:57.578Z,63.18
2019-04-28T06:43:31.195Z,63.06
2019-04-28T06:46:04.436Z,63.60
2019-04-28T06:48:37.664Z,63.23
2019-04-28T06:51:10.901Z,63.28
2019-04-28T06:53:44.159Z,63.59
2019-04-28T06:56:17.320Z,63.51
2019-04-28T06:58:58.944Z,63.16
2019-04-28T07:01:25.328Z,61.88
2019-04-28T07:03:58.544Z,61.19
2019-04-28T07:06:31.696Z,60.56
2019-04-28T07:09:07.198Z,60.65
2019-04-28T07:11:41.483Z,61.18
2019-04-28T07:14:17.500Z,61.31
2019-04-28T07:16:50.819Z,60.73
2019-04-28T07:19:28.216Z,61.34
2019-04-28T07:22:07.070Z,61.76
2019-04-28T07:24:40.288Z,62.41
2019-04-28T07:27:14.510Z,62.32
2019-04-28T07:29:49.594Z,61.86
2019-04-28T07:32:22.898Z,62.23
2019-04-28T07:34:57.837Z,62.43
2019-04-28T07:37:31.177Z,62.67
2019-04-28T07:40:04.745Z,63.32
2019-04-28T07:42:44.371Z,63.07
2019-04-28T07:45:17.740Z,63.11
2019-04-28T07:48:15.770Z,63.59
2019-04-28T07:51:09.473Z,63.20
2019-04-28T07:54:07.580Z,63.82
2019-04-28T07:57:25.361Z,63.90
2019-04-28T08:00:44.408Z,63.97
2019-04-28T08:03:49.604Z,62.99
2019-04-28T08:06:32.993Z,63.08
2019-04-28T08:09:41.003Z,63.51
2019-04-28T08:12:31.403Z,66.40
2019-04-28T08:15:24.745Z,63.61
2019-04-28T08:18:31.402Z,63.51
2019-04-28T08:21:16.239Z,63.03
2019-04-28T08:23:53.493Z,63.49
2019-04-28T08:26:26.964Z,63.75
2019-04-28T08:29:00.329Z,63.56
2019-04-28T08:31:43.391Z,62.56
2019-04-28T08:34:17.506Z,62.58
2019-04-28T08:36:50.757Z,61.66
2019-04-28T08:39:26.720Z,61.56
2019-04-28T08:41:59.078Z,61.88
2019-04-28T08:44:32.666Z,61.98
2019-04-28T08:47:05.942Z,62.15
2019-04-28T08:49:39.413Z,62.16
2019-04-28T08:52:12.672Z,62.38
2019-04-28T08:54:46.041Z,62.38
2019-04-28T08:57:19.299Z,62.32
2019-04-28T08:59:52.714Z,61.25
2019-04-28T09:02:27.907Z,61.42
2019-04-28T09:05:11.447Z,61.84
2019-04-28T09:07:44.997Z,61.40
2019-04-28T09:10:19.146Z,60.92
2019-04-28T09:12:52.686Z,60.58
2019-04-28T09:15:25.945Z,60.35
2019-04-28T09:17:59.234Z,61.03
2019-04-28T09:20:32.496Z,61.10
2019-04-28T09:23:05.889Z,61.25
2019-04-28T09:25:39.308Z,60.24
2019-04-28T09:28:12.599Z,60.36
2019-04-28T09:30:47.329Z,60.44
2019-04-28T09:33:20.981Z,60.47
2019-04-28T09:35:55.527Z,60.42
2019-04-28T09:38:28.774Z,60.17
2019-04-28T09:41:02.048Z,60.71
2019-04-28T09:43:58.474Z,60.28
2019-04-28T09:46:34.645Z,59.96
2019-04-28T09:49:08.046Z,60.11
2019-04-28T09:51:41.311Z,59.37
2019-04-28T09:54:14.468Z,59.34
2019-04-28T09:56:56.569Z,59.01
2019-04-28T09:59:27.302Z,58.76
2019-04-28T10:02:01.627Z,58.73
2019-04-28T10:04:41.622Z,58.52
2019-04-28T10:07:15.204Z,58.31
2019-04-28T10:09:49.098Z,58.33
2019-04-28T10:12:27.169Z,58.21
2019-04-28T10:14:58.291Z,58.07
2019-04-28T10:17:31.616Z,58.32
2019-04-28T10:20:06.018Z,57.96
2019-04-28T10:22:39.231Z,57.65
2019-04-28T10:25:13.320Z,57.55
2019-04-28T10:27:46.640Z,57.85
2019-04-28T10:30:19.942Z,57.50
2019-04-28T10:32:53.120Z,57.88
2019-04-28T10:35:26.383Z,58.00
2019-04-28T10:37:59.744Z,57.80
2019-04-28T10:41:12.650Z,57.62
2019-04-28T10:43:45.906Z,57.69
2019-04-28T10:46:19.114Z,58.01
2019-04-28T10:48:52.349Z,57.95
2019-04-28T10:51:26.987Z,57.15
2019-04-28T10:54:00.400Z,57.18
2019-04-28T10:56:33.470Z,57.07
2019-04-28T10:59:06.734Z,56.96
2019-04-28T11:01:40.014Z,56.88
2019-04-28T11:04:31.977Z,56.38
2019-04-28T11:07:05.529Z,56.30
2019-04-28T11:09:43.118Z,56.15
2019-04-28T11:12:22.246Z,55.21
2019-04-28T11:14:55.392Z,54.60
2019-04-28T11:17:28.696Z,54.49
2019-04-28T11:20:02.016Z,54.25
2019-04-28T11:22:36.149Z,54.67
2019-04-28T11:25:09.773Z,54.87
2019-04-28T11:27:42.994Z,54.63
2019-04-28T11:30:17.528Z,54.71
2019-04-28T11:33:09.203Z,54.19
2019-04-28T11:35:42.640Z,54.51
2019-04-28T11:38:15.815Z,54.69
2019-04-28T11:40:49.050Z,54.89
2019-04-28T11:43:22.292Z,54.29
2019-04-28T11:45:55.575Z,54.68
2019-04-28T11:48:28.745Z,54.66
2019-04-28T11:51:02.002Z,54.15
2019-04-28T11:53:35.441Z,53.87
2019-04-28T11:56:08.678Z,53.38
2019-04-28T11:58:42.277Z,53.87
2019-04-28T12:01:16.272Z,54.11
2019-04-28T12:03:52.662Z,53.37
2019-04-28T12:06:25.986Z,53.78
2019-04-28T12:09:04.561Z,53.43
2019-04-28T12:11:42.081Z,53.60
2019-04-28T12:14:19.625Z,53.39
2019-04-28T12:17:14.329Z,53.55
2019-04-28T12:19:52.447Z,53.48
2019-04-28T12:22:25.748Z,54.03
2019-04-28T12:24:59.078Z,53.68
2019-04-28T12:27:32.215Z,53.85
2019-04-28T12:30:06.227Z,53.50
2019-04-28T12:32:39.448Z,53.78
2019-04-28T12:35:12.952Z,54.13
2019-04-28T12:37:47.403Z,53.89
2019-04-28T12:40:22.605Z,53.99
2019-04-28T12:42:55.619Z,53.99
2019-04-28T12:45:35.380Z,54.41
2019-04-28T12:48:04.310Z,54.47
2019-04-28T12:50:43.570Z,54.31
2019-04-28T12:53:16.709Z,54.94
2019-04-28T12:55:49.877Z,54.31
2019-04-28T12:58:23.177Z,54.07
2019-04-28T13:01:10.448Z,53.70
2019-04-28T13:04:10.877Z,53.67
2019-04-28T13:07:01.150Z,53.80
2019-04-28T13:09:35.464Z,53.93
2019-04-28T13:12:10.177Z,53.79
2019-04-28T13:14:44.429Z,53.93
2019-04-28T13:17:17.514Z,53.91
2019-04-28T13:19:50.770Z,54.30
2019-04-28T13:22:24.001Z,54.02
2019-04-28T13:24:57.387Z,54.53
2019-04-28T13:27:30.557Z,54.14
2019-04-28T13:30:04.033Z,54.19
2019-04-28T13:32:37.220Z,54.28
2019-04-28T13:35:10.567Z,53.81
2019-04-28T13:37:43.871Z,53.98
2019-04-28T13:40:26.236Z,53.59
2019-04-28T13:42:59.537Z,54.03
2019-04-28T13:45:32.886Z,54.50
2019-04-28T13:48:06.245Z,54.56
2019-04-28T13:50:40.073Z,54.65
2019-04-28T13:53:14.956Z,55.21
2019-04-28T13:56:06.973Z,54.76
2019-04-28T13:58:54.914Z,54.97
2019-04-28T14:01:46.859Z,55.45
2019-04-28T14:04:41.645Z,55.38
2019-04-28T14:07:14.950Z,55.54
2019-04-28T14:09:48.204Z,55.52
2019-04-28T14:12:21.463Z,55.53
2019-04-28T14:14:54.841Z,55.66
2019-04-28T14:17:29.697Z,54.79
2019-04-28T14:20:03.003Z,54.74
2019-04-28T14:22:36.254Z,54.90
2019-04-28T14:25:09.502Z,54.44
2019-04-28T14:27:42.771Z,54.58
2019-04-28T14:30:16.181Z,54.64
2019-04-28T14:32:49.464Z,54.52
2019-04-28T14:35:22.753Z,54.67
2019-04-28T14:37:56.051Z,54.65
2019-04-28T14:40:30.202Z,54.80
2019-04-28T14:43:06.817Z,55.55
2019-04-28T14:45:39.970Z,55.61
2019-04-28T14:48:13.229Z,56.24
2019-04-28T14:50:46.425Z,56.42
2019-04-28T14:53:23.561Z,57.05
2019-04-28T14:55:57.261Z,57.90
2019-04-28T14:58:30.590Z,58.60
2019-04-28T15:01:11.922Z,59.09
2019-04-28T15:03:47.398Z,60.05
2019-04-28T15:06:28.971Z,60.04
2019-04-28T15:09:32.876Z,59.80
2019-04-28T15:12:07.540Z,60.24
2019-04-28T15:14:41.718Z,61.17
2019-04-28T15:17:15.012Z,60.95
2019-04-28T15:19:48.302Z,62.39
2019-04-28T15:22:21.557Z,62.63
2019-04-28T15:25:02.401Z,62.79
2019-04-28T15:27:35.666Z,63.01
2019-04-28T15:30:10.273Z,63.26
2019-04-28T15:32:43.675Z,65.44
2019-04-28T15:35:17.042Z,63.68
2019-04-28T15:37:54.348Z,64.07
2019-04-28T15:40:32.687Z,64.01
2019-04-28T15:43:05.882Z,64.18
2019-04-28T15:45:39.309Z,64.77
2019-04-28T15:48:12.476Z,65.19
2019-04-28T15:50:45.756Z,65.00
2019-04-28T15:53:19.042Z,65.46
2019-04-28T15:56:11.000Z,65.65
2019-04-28T15:58:44.304Z,65.86
2019-04-28T16:01:17.706Z,66.10
2019-04-28T16:03:50.968Z,66.46
2019-04-28T16:06:25.289Z,66.38
2019-04-28T16:08:58.689Z,67.07
2019-04-28T16:11:32.011Z,67.91
2019-04-28T16:14:05.393Z,68.19
2019-04-28T16:16:38.899Z,68.68
2019-04-28T16:19:12.108Z,68.96
2019-04-28T16:21:45.417Z,68.61
2019-04-28T16:24:18.957Z,68.99
2019-04-28T16:26:52.198Z,69.33
2019-04-28T16:29:25.694Z,69.50
2019-04-28T16:32:09.970Z,69.68
2019-04-28T16:34:44.369Z,69.78
2019-04-28T16:37:17.670Z,70.04
2019-04-28T16:39:50.976Z,70.39
2019-04-28T16:42:32.717Z,70.22
2019-04-28T16:45:12.258Z,70.97
2019-04-28T16:47:45.546Z,70.71
2019-04-28T16:50:18.702Z,70.45
2019-04-28T16:52:54.108Z,71.40
2019-04-28T16:55:35.155Z,71.03
2019-04-28T16:58:28.154Z,71.35
2019-04-28T17:01:26.492Z,71.20
2019-04-28T17:04:01.076Z,71.49
2019-04-28T17:06:35.820Z,72.19
2019-04-28T17:09:10.434Z,71.83
2019-04-28T17:11:45.259Z,71.96
2019-04-28T17:14:19.447Z,71.75
2019-04-28T17:16:52.789Z,71.76
2019-04-28T17:19:26.181Z,71.63
2019-04-28T17:21:59.507Z,71.63
2019-04-28T17:24:33.144Z,71.79
2019-04-28T17:27:06.266Z,72.12
2019-04-28T17:29:39.779Z,72.50
2019-04-28T17:32:13.077Z,72.40
2019-04-28T17:34:46.381Z,72.21
2019-04-28T17:37:19.666Z,72.84
2019-04-28T17:39:52.967Z,72.76
2019-04-28T17:42:26.375Z,72.60
2019-04-28T17:44:59.772Z,73.15
2019-04-28T17:47:33.108Z,73.07
2019-04-28T17:50:08.802Z,73.26
2019-04-28T17:52:41.990Z,73.12
2019-04-28T17:55:15.581Z,73.36
2019-04-28T17:57:48.782Z,73.40
2019-04-28T18:00:32.060Z,73.70
2019-04-28T18:03:30.202Z,73.74
2019-04-28T18:06:17.960Z,73.53
2019-04-28T18:08:53.029Z,73.67
2019-04-28T18:11:26.456Z,73.88
2019-04-28T18:13:59.769Z,74.22
2019-04-28T18:16:51.541Z,74.19
2019-04-28T18:19:24.916Z,74.03
2019-04-28T18:21:58.209Z,74.43
2019-04-28T18:24:31.419Z,74.21
2019-04-28T18:27:04.680Z,74.53
2019-04-28T18:29:38.049Z,74.31
2019-04-28T18:32:30.030Z,74.29
2019-04-28T18:35:27.879Z,74.31
2019-04-28T18:38:05.976Z,74.58
2019-04-28T18:41:04.352Z,74.20
2019-04-28T18:43:45.509Z,74.40
2019-04-28T18:46:36.049Z,74.65
2019-04-28T18:49:10.027Z,74.58
2019-04-28T18:51:54.377Z,74.56
2019-04-28T18:54:27.718Z,74.64
2019-04-28T18:57:01.006Z,74.70
2019-04-28T18:59:35.327Z,74.67
2019-04-28T19:02:18.134Z,74.55
2019-04-28T19:04:51.620Z,74.56
2019-04-28T19:07:43.706Z,74.75
2019-04-28T19:10:28.177Z,75.18
2019-04-28T19:13:05.775Z,74.72
2019-04-28T19:15:54.268Z,74.81
2019-04-28T19:18:32.648Z,75.13
2019-04-28T19:21:06.503Z,74.87
2019-04-28T19:23:40.405Z,75.20
2019-04-28T19:26:13.831Z,75.18
2019-04-28T19:28:47.151Z,75.19
2019-04-28T19:31:20.439Z,75.05
2019-04-28T19:33:54.731Z,75.26
2019-04-28T19:36:27.932Z,75.63
2019-04-28T19:39:05.718Z,75.71
2019-04-28T19:41:40.649Z,75.42
2019-04-28T19:44:15.115Z,75.73
2019-04-28T19:46:50.039Z,75.74
2019-04-28T19:49:25.405Z,75.43
2019-04-28T19:51:58.808Z,75.85
2019-04-28T19:54:36.724Z,75.76
2019-04-28T19:57:39.808Z,75.80
2019-04-28T20:00:21.951Z,75.47
2019-04-28T20:02:56.758Z,75.54
2019-04-28T20:05:31.095Z,75.77
2019-04-28T20:08:08.130Z,75.72
2019-04-28T20:10:42.474Z,76.03
2019-04-28T20:13:16.060Z,76.17
2019-04-28T20:15:49.542Z,76.57
2019-04-28T20:18:22.859Z,76.89
2019-04-28T20:20:56.216Z,76.53
2019-04-28T20:23:29.544Z,76.61
2019-04-28T20:26:06.526Z,76.55
2019-04-28T20:28:40.654Z,76.89
2019-04-28T20:31:15.476Z,76.76
2019-04-28T20:33:48.800Z,76.46
2019-04-28T20:36:40.505Z,76.25
2019-04-28T20:39:19.528Z,76.43
2019-04-28T20:41:53.750Z,76.33
2019-04-28T20:44:27.683Z,76.22
2019-04-28T20:47:02.476Z,76.38
2019-04-28T20:49:35.798Z,76.46
2019-04-28T20:52:09.123Z,76.52
2019-04-28T20:54:42.423Z,76.35
2019-04-28T20:57:16.322Z,76.52
2019-04-28T20:59:49.545Z,76.86
2019-04-28T21:02:22.965Z,77.02
2019-04-28T21:04:56.353Z,76.54
2019-04-28T21:07:29.528Z,76.93
2019-04-28T21:10:02.764Z,76.72
2019-04-28T21:12:35.942Z,77.15
2019-04-28T21:15:09.739Z,76.97
2019-04-28T21:17:42.995Z,77.47
2019-04-28T21:20:16.272Z,77.08
2019-04-28T21:22:49.493Z,77.12
2019-04-28T21:25:22.837Z,76.94
2019-04-28T21:27:56.012Z,77.65
2019-04-28T21:30:29.293Z,77.65
2019-04-28T21:33:02.650Z,77.63
2019-04-28T21:35:35.824Z,77.78
2019-04-28T21:38:09.059Z,77.66
2019-04-28T21:40:43.011Z,77.49
2019-04-28T21:43:24.765Z,77.42
2019-04-28T21:46:10.510Z,77.20
2019-04-28T21:49:02.410Z,77.54
2019-04-28T21:51:35.901Z,77.67
2019-04-28T21:54:09.126Z,77.89
2019-04-28T21:56:42.633Z,77.72
2019-04-28T21:59:15.815Z,77.64
2019-04-28T22:01:49.290Z,77.62
2019-04-28T22:04:22.551Z,77.69
2019-04-28T22:06:55.728Z,77.63
2019-04-28T22:09:28.924Z,77.70
2019-04-28T22:12:02.187Z,77.82
2019-04-28T22:14:35.401Z,78.05
2019-04-28T22:17:08.677Z,78.30
2019-04-28T22:19:41.875Z,77.97
2019-04-28T22:22:15.114Z,78.12
2019-04-28T22:25:00.313Z,78.43
2019-04-28T22:27:41.769Z,78.31
2019-04-28T22:30:15.080Z,78.22
2019-04-28T22:32:48.454Z,78.48
2019-04-28T22:35:22.642Z,78.47
2019-04-28T22:37:55.834Z,78.32
2019-04-28T22:40:28.997Z,78.28
2019-04-28T22:43:03.405Z,78.21
2019-04-28T22:45:36.580Z,78.39
2019-04-28T22:48:12.558Z,78.34
2019-04-28T22:50:47.468Z,78.32
2019-04-28T22:53:23.462Z,78.18
2019-04-28T22:56:21.659Z,78.89
2019-04-28T22:58:58.883Z,78.64
2019-04-28T23:01:35.446Z,78.59
2019-04-28T23:04:12.205Z,78.54
2019-04-28T23:06:45.886Z,78.49
2019-04-28T23:09:20.869Z,78.73
2019-04-28T23:11:54.384Z,78.69
2019-04-28T23:14:27.612Z,78.74
2019-04-28T23:17:01.197Z,78.62
2019-04-28T23:19:36.882Z,78.70
2019-04-28T23:22:47.013Z,78.53
2019-04-28T23:25:16.481Z,78.24
2019-04-28T23:27:49.842Z,78.43
2019-04-28T23:30:45.450Z,78.53
2019-04-28T23:33:18.806Z,78.45
2019-04-28T23:35:52.234Z,78.41
2019-04-28T23:38:25.531Z,78.75
2019-04-28T23:41:20.683Z,78.68
2019-04-28T23:43:54.032Z,79.07
2019-04-28T23:46:46.020Z,79.27
2019-04-28T23:49:19.288Z,79.20
2019-04-28T23:52:01.642Z,79.50
2019-04-28T23:54:35.890Z,79.99
2019-04-28T23:57:10.362Z,80.00
2019-04-28T23:59:44.425Z,79.80
